sensor_id;sensor_type;location;lat;lon;timestamp;temperature;humidity
54082;DHT22;39986;50.770;0.266;2023-05-10T00:00:09;13.00;99.90
54082;DHT22;39986;50.770;0.266;2023-05-10T00:02:35;12.90;99.90
54082;DHT22;39986;50.770;0.266;2023-05-10T00:05:01;12.90;99.90
54082;DHT22;39986;50.770;0.266;2023-05-10T00:07:26;12.90;99.90
54082;DHT22;39986;50.770;0.266;2023-05-10T00:09:52;12.90;99.90
54082;DHT22;39986;50.770;0.266;2023-05-10T00:12:17;12.90;99.90
54082;DHT22;39986;50.770;0.266;2023-05-10T00:14:43;12.80;99.90
54082;DHT22;39986;50.770;0.266;2023-05-10T00:17:08;12.80;99.90
54082;DHT22;39986;50.770;0.266;2023-05-10T00:19:34;12.80;99.90
54082;DHT22;39986;50.770;0.266;2023-05-10T00:22:00;12.80;99.90
54082;DHT22;39986;50.770;0.266;2023-05-10T00:24:25;12.80;99.90
54082;DHT22;39986;50.770;0.266;2023-05-10T00:26:51;12.80;99.90
54082;DHT22;39986;50.770;0.266;2023-05-10T00:29:16;12.80;99.90
54082;DHT22;39986;50.770;0.266;2023-05-10T00:31:42;12.80;99.90
54082;DHT22;39986;50.770;0.266;2023-05-10T00:34:07;13.00;99.90
54082;DHT22;39986;50.770;0.266;2023-05-10T00:36:33;12.90;99.90
54082;DHT22;39986;50.770;0.266;2023-05-10T00:38:58;13.00;99.90
54082;DHT22;39986;50.770;0.266;2023-05-10T00:41:24;13.00;99.90
54082;DHT22;39986;50.770;0.266;2023-05-10T00:43:49;13.00;99.90
54082;DHT22;39986;50.770;0.266;2023-05-10T00:46:15;12.90;99.90
54082;DHT22;39986;50.770;0.266;2023-05-10T00:48:41;13.00;99.90
54082;DHT22;39986;50.770;0.266;2023-05-10T00:51:07;13.10;99.90
54082;DHT22;39986;50.770;0.266;2023-05-10T00:53:32;13.10;99.90
54082;DHT22;39986;50.770;0.266;2023-05-10T00:55:59;13.00;99.90
54082;DHT22;39986;50.770;0.266;2023-05-10T00:58:25;13.10;99.90
54082;DHT22;39986;50.770;0.266;2023-05-10T01:00:54;13.00;99.90
54082;DHT22;39986;50.770;0.266;2023-05-10T01:03:20;13.10;99.90
54082;DHT22;39986;50.770;0.266;2023-05-10T01:05:46;13.10;99.90
54082;DHT22;39986;50.770;0.266;2023-05-10T01:08:11;13.10;99.90
54082;DHT22;39986;50.770;0.266;2023-05-10T01:10:37;13.10;99.90
54082;DHT22;39986;50.770;0.266;2023-05-10T01:13:02;13.10;99.90
54082;DHT22;39986;50.770;0.266;2023-05-10T01:15:28;13.00;99.90
54082;DHT22;39986;50.770;0.266;2023-05-10T01:17:54;13.10;99.90
54082;DHT22;39986;50.770;0.266;2023-05-10T01:20:21;13.10;99.90
54082;DHT22;39986;50.770;0.266;2023-05-10T01:35:43;13.10;99.90
54082;DHT22;39986;50.770;0.266;2023-05-10T01:38:24;13.10;99.90
54082;DHT22;39986;50.770;0.266;2023-05-10T01:43:42;13.00;99.90
54082;DHT22;39986;50.770;0.266;2023-05-10T01:46:14;13.00;99.90
54082;DHT22;39986;50.770;0.266;2023-05-10T01:48:47;13.00;99.90
54082;DHT22;39986;50.770;0.266;2023-05-10T01:51:14;13.00;99.90
54082;DHT22;39986;50.770;0.266;2023-05-10T01:53:42;13.00;99.90
54082;DHT22;39986;50.770;0.266;2023-05-10T01:56:08;12.90;99.90
54082;DHT22;39986;50.770;0.266;2023-05-10T01:58:34;12.90;99.90
54082;DHT22;39986;50.770;0.266;2023-05-10T02:01:02;12.90;99.90
54082;DHT22;39986;50.770;0.266;2023-05-10T02:03:28;12.80;99.90
54082;DHT22;39986;50.770;0.266;2023-05-10T02:05:56;12.90;99.90
54082;DHT22;39986;50.770;0.266;2023-05-10T02:08:22;12.90;99.90
54082;DHT22;39986;50.770;0.266;2023-05-10T02:10:49;12.70;99.90
54082;DHT22;39986;50.770;0.266;2023-05-10T02:13:16;12.90;99.90
54082;DHT22;39986;50.770;0.266;2023-05-10T02:15:42;12.90;99.90
54082;DHT22;39986;50.770;0.266;2023-05-10T02:18:08;12.80;99.90
54082;DHT22;39986;50.770;0.266;2023-05-10T02:20:34;12.80;99.90
54082;DHT22;39986;50.770;0.266;2023-05-10T02:23:00;12.90;99.90
54082;DHT22;39986;50.770;0.266;2023-05-10T02:25:26;12.90;99.90
54082;DHT22;39986;50.770;0.266;2023-05-10T02:27:53;12.90;99.90
54082;DHT22;39986;50.770;0.266;2023-05-10T02:30:19;13.00;99.90
54082;DHT22;39986;50.770;0.266;2023-05-10T02:32:45;12.90;99.90
54082;DHT22;39986;50.770;0.266;2023-05-10T02:35:12;12.90;99.90
54082;DHT22;39986;50.770;0.266;2023-05-10T02:37:38;13.00;99.90
54082;DHT22;39986;50.770;0.266;2023-05-10T02:40:04;12.90;99.90
54082;DHT22;39986;50.770;0.266;2023-05-10T02:42:32;12.90;99.90
54082;DHT22;39986;50.770;0.266;2023-05-10T02:44:59;12.90;99.90
54082;DHT22;39986;50.770;0.266;2023-05-10T02:47:25;12.80;99.90
54082;DHT22;39986;50.770;0.266;2023-05-10T02:49:51;12.80;99.90
54082;DHT22;39986;50.770;0.266;2023-05-10T02:52:30;12.80;99.90
54082;DHT22;39986;50.770;0.266;2023-05-10T02:55:00;12.90;99.90
54082;DHT22;39986;50.770;0.266;2023-05-10T02:57:28;12.80;99.90
54082;DHT22;39986;50.770;0.266;2023-05-10T02:59:56;12.80;99.90
54082;DHT22;39986;50.770;0.266;2023-05-10T03:02:22;12.80;99.90
54082;DHT22;39986;50.770;0.266;2023-05-10T03:04:47;12.90;99.90
54082;DHT22;39986;50.770;0.266;2023-05-10T03:07:13;12.90;99.90
54082;DHT22;39986;50.770;0.266;2023-05-10T03:09:38;12.90;99.90
54082;DHT22;39986;50.770;0.266;2023-05-10T03:17:11;12.80;99.90
54082;DHT22;39986;50.770;0.266;2023-05-10T03:19:44;12.90;99.90
54082;DHT22;39986;50.770;0.266;2023-05-10T03:22:10;12.80;99.90
54082;DHT22;39986;50.770;0.266;2023-05-10T03:24:39;12.80;99.90
54082;DHT22;39986;50.770;0.266;2023-05-10T03:27:05;12.80;99.90
54082;DHT22;39986;50.770;0.266;2023-05-10T03:29:31;12.70;99.90
54082;DHT22;39986;50.770;0.266;2023-05-10T03:31:57;12.70;99.90
54082;DHT22;39986;50.770;0.266;2023-05-10T03:34:24;12.80;99.90
54082;DHT22;39986;50.770;0.266;2023-05-10T03:36:50;12.70;99.90
54082;DHT22;39986;50.770;0.266;2023-05-10T03:39:15;12.70;99.90
54082;DHT22;39986;50.770;0.266;2023-05-10T03:41:41;12.70;99.90
54082;DHT22;39986;50.770;0.266;2023-05-10T03:44:06;12.70;99.90
54082;DHT22;39986;50.770;0.266;2023-05-10T03:46:32;12.70;99.90
54082;DHT22;39986;50.770;0.266;2023-05-10T03:48:57;12.70;99.90
54082;DHT22;39986;50.770;0.266;2023-05-10T03:51:23;12.80;99.90
54082;DHT22;39986;50.770;0.266;2023-05-10T03:53:50;12.70;99.90
54082;DHT22;39986;50.770;0.266;2023-05-10T03:56:16;12.70;99.90
54082;DHT22;39986;50.770;0.266;2023-05-10T03:58:41;12.90;99.90
54082;DHT22;39986;50.770;0.266;2023-05-10T04:01:07;12.80;99.90
54082;DHT22;39986;50.770;0.266;2023-05-10T04:03:32;12.70;99.90
54082;DHT22;39986;50.770;0.266;2023-05-10T04:05:58;12.80;99.90
54082;DHT22;39986;50.770;0.266;2023-05-10T04:08:24;12.70;99.90
54082;DHT22;39986;50.770;0.266;2023-05-10T04:10:49;12.80;99.90
54082;DHT22;39986;50.770;0.266;2023-05-10T04:13:15;12.80;99.90
54082;DHT22;39986;50.770;0.266;2023-05-10T04:15:40;12.80;99.90
54082;DHT22;39986;50.770;0.266;2023-05-10T04:18:06;12.80;99.90
54082;DHT22;39986;50.770;0.266;2023-05-10T04:20:32;12.70;99.90
54082;DHT22;39986;50.770;0.266;2023-05-10T04:22:57;12.80;99.90
54082;DHT22;39986;50.770;0.266;2023-05-10T04:25:23;12.80;99.90
54082;DHT22;39986;50.770;0.266;2023-05-10T04:27:49;12.70;99.90
54082;DHT22;39986;50.770;0.266;2023-05-10T04:30:14;12.80;99.90
54082;DHT22;39986;50.770;0.266;2023-05-10T04:32:40;12.70;99.90
54082;DHT22;39986;50.770;0.266;2023-05-10T04:35:05;12.80;99.90
54082;DHT22;39986;50.770;0.266;2023-05-10T04:37:31;12.70;99.90
54082;DHT22;39986;50.770;0.266;2023-05-10T04:39:57;12.70;99.90
54082;DHT22;39986;50.770;0.266;2023-05-10T04:42:22;12.70;99.90
54082;DHT22;39986;50.770;0.266;2023-05-10T04:44:48;12.70;99.90
54082;DHT22;39986;50.770;0.266;2023-05-10T04:47:13;12.70;99.90
54082;DHT22;39986;50.770;0.266;2023-05-10T04:49:39;12.70;99.90
54082;DHT22;39986;50.770;0.266;2023-05-10T04:52:04;12.80;99.90
54082;DHT22;39986;50.770;0.266;2023-05-10T04:54:30;12.80;99.90
54082;DHT22;39986;50.770;0.266;2023-05-10T04:56:55;12.80;99.90
54082;DHT22;39986;50.770;0.266;2023-05-10T04:59:21;12.80;99.90
54082;DHT22;39986;50.770;0.266;2023-05-10T05:01:46;12.90;99.90
54082;DHT22;39986;50.770;0.266;2023-05-10T05:04:12;12.80;99.90
54082;DHT22;39986;50.770;0.266;2023-05-10T05:06:38;12.70;99.90
54082;DHT22;39986;50.770;0.266;2023-05-10T05:09:03;12.70;99.90
54082;DHT22;39986;50.770;0.266;2023-05-10T05:11:29;12.70;99.90
54082;DHT22;39986;50.770;0.266;2023-05-10T05:13:54;12.80;99.90
54082;DHT22;39986;50.770;0.266;2023-05-10T05:16:20;12.90;99.90
54082;DHT22;39986;50.770;0.266;2023-05-10T05:18:46;12.80;99.90
54082;DHT22;39986;50.770;0.266;2023-05-10T05:21:15;12.90;99.90
54082;DHT22;39986;50.770;0.266;2023-05-10T05:23:41;12.90;99.90
54082;DHT22;39986;50.770;0.266;2023-05-10T05:26:07;12.90;99.90
54082;DHT22;39986;50.770;0.266;2023-05-10T05:28:32;12.90;99.90
54082;DHT22;39986;50.770;0.266;2023-05-10T05:31:02;12.90;99.90
54082;DHT22;39986;50.770;0.266;2023-05-10T05:33:28;12.90;99.90
54082;DHT22;39986;50.770;0.266;2023-05-10T05:35:53;13.00;99.90
54082;DHT22;39986;50.770;0.266;2023-05-10T05:38:19;12.90;99.90
54082;DHT22;39986;50.770;0.266;2023-05-10T05:40:45;12.90;99.90
54082;DHT22;39986;50.770;0.266;2023-05-10T05:43:11;12.90;99.90
54082;DHT22;39986;50.770;0.266;2023-05-10T05:45:37;12.90;99.90
54082;DHT22;39986;50.770;0.266;2023-05-10T05:48:02;13.00;99.90
54082;DHT22;39986;50.770;0.266;2023-05-10T05:50:28;12.80;99.90
54082;DHT22;39986;50.770;0.266;2023-05-10T05:52:53;12.90;99.90
54082;DHT22;39986;50.770;0.266;2023-05-10T05:55:19;12.90;99.90
54082;DHT22;39986;50.770;0.266;2023-05-10T05:57:44;12.90;99.90
54082;DHT22;39986;50.770;0.266;2023-05-10T06:00:10;12.90;99.90
54082;DHT22;39986;50.770;0.266;2023-05-10T06:02:36;12.90;99.90
54082;DHT22;39986;50.770;0.266;2023-05-10T06:05:02;13.00;99.90
54082;DHT22;39986;50.770;0.266;2023-05-10T06:07:27;13.10;99.90
54082;DHT22;39986;50.770;0.266;2023-05-10T06:09:53;13.10;99.90
54082;DHT22;39986;50.770;0.266;2023-05-10T06:12:18;13.20;99.90
54082;DHT22;39986;50.770;0.266;2023-05-10T06:14:44;13.20;99.90
54082;DHT22;39986;50.770;0.266;2023-05-10T06:17:10;13.20;99.90
54082;DHT22;39986;50.770;0.266;2023-05-10T06:19:35;13.20;99.90
54082;DHT22;39986;50.770;0.266;2023-05-10T06:22:02;13.20;99.90
54082;DHT22;39986;50.770;0.266;2023-05-10T06:24:27;13.00;99.90
54082;DHT22;39986;50.770;0.266;2023-05-10T06:26:53;13.00;99.90
54082;DHT22;39986;50.770;0.266;2023-05-10T06:29:18;13.10;99.90
54082;DHT22;39986;50.770;0.266;2023-05-10T06:31:44;13.00;99.90
54082;DHT22;39986;50.770;0.266;2023-05-10T06:34:09;13.00;99.90
54082;DHT22;39986;50.770;0.266;2023-05-10T06:36:36;13.00;99.90
54082;DHT22;39986;50.770;0.266;2023-05-10T06:39:02;13.00;99.90
54082;DHT22;39986;50.770;0.266;2023-05-10T06:41:28;13.10;99.90
54082;DHT22;39986;50.770;0.266;2023-05-10T06:43:53;13.30;99.90
54082;DHT22;39986;50.770;0.266;2023-05-10T06:46:19;13.20;99.90
54082;DHT22;39986;50.770;0.266;2023-05-10T06:48:44;13.10;99.90
54082;DHT22;39986;50.770;0.266;2023-05-10T06:51:10;13.20;99.90
54082;DHT22;39986;50.770;0.266;2023-05-10T06:53:36;13.30;99.90
54082;DHT22;39986;50.770;0.266;2023-05-10T06:56:01;13.30;99.90
54082;DHT22;39986;50.770;0.266;2023-05-10T06:58:28;13.30;99.90
54082;DHT22;39986;50.770;0.266;2023-05-10T07:00:53;13.30;99.90
54082;DHT22;39986;50.770;0.266;2023-05-10T07:03:19;13.20;99.90
54082;DHT22;39986;50.770;0.266;2023-05-10T07:05:45;13.30;99.90
54082;DHT22;39986;50.770;0.266;2023-05-10T07:08:10;13.30;99.90
54082;DHT22;39986;50.770;0.266;2023-05-10T07:10:36;13.40;99.90
54082;DHT22;39986;50.770;0.266;2023-05-10T07:13:01;13.60;99.90
54082;DHT22;39986;50.770;0.266;2023-05-10T07:15:27;13.90;99.90
54082;DHT22;39986;50.770;0.266;2023-05-10T07:17:53;14.10;99.90
54082;DHT22;39986;50.770;0.266;2023-05-10T07:20:18;14.40;99.90
54082;DHT22;39986;50.770;0.266;2023-05-10T07:22:44;14.60;99.90
54082;DHT22;39986;50.770;0.266;2023-05-10T07:25:10;14.90;99.90
54082;DHT22;39986;50.770;0.266;2023-05-10T07:27:36;15.00;99.90
54082;DHT22;39986;50.770;0.266;2023-05-10T07:30:01;15.20;99.90
54082;DHT22;39986;50.770;0.266;2023-05-10T07:32:27;15.30;99.90
54082;DHT22;39986;50.770;0.266;2023-05-10T07:34:53;15.50;99.90
54082;DHT22;39986;50.770;0.266;2023-05-10T07:37:19;15.60;99.90
54082;DHT22;39986;50.770;0.266;2023-05-10T07:39:44;15.70;99.90
54082;DHT22;39986;50.770;0.266;2023-05-10T07:42:10;15.80;99.90
54082;DHT22;39986;50.770;0.266;2023-05-10T07:44:35;16.00;99.90
54082;DHT22;39986;50.770;0.266;2023-05-10T07:47:01;16.10;99.90
54082;DHT22;39986;50.770;0.266;2023-05-10T07:49:26;16.10;99.90
54082;DHT22;39986;50.770;0.266;2023-05-10T07:51:52;16.20;99.90
54082;DHT22;39986;50.770;0.266;2023-05-10T07:54:17;16.20;99.90
54082;DHT22;39986;50.770;0.266;2023-05-10T07:56:43;16.20;99.90
54082;DHT22;39986;50.770;0.266;2023-05-10T07:59:15;16.30;99.90
54082;DHT22;39986;50.770;0.266;2023-05-10T08:01:41;16.50;99.90
54082;DHT22;39986;50.770;0.266;2023-05-10T08:04:07;16.50;99.90
54082;DHT22;39986;50.770;0.266;2023-05-10T08:06:32;16.60;99.90
54082;DHT22;39986;50.770;0.266;2023-05-10T08:08:58;16.70;99.90
54082;DHT22;39986;50.770;0.266;2023-05-10T08:11:23;16.80;99.90
54082;DHT22;39986;50.770;0.266;2023-05-10T08:13:50;16.80;99.90
54082;DHT22;39986;50.770;0.266;2023-05-10T08:16:16;16.70;99.90
54082;DHT22;39986;50.770;0.266;2023-05-10T08:18:42;16.60;99.90
54082;DHT22;39986;50.770;0.266;2023-05-10T08:21:08;16.50;99.90
54082;DHT22;39986;50.770;0.266;2023-05-10T08:23:36;16.50;99.90
54082;DHT22;39986;50.770;0.266;2023-05-10T08:26:01;16.30;99.90
54082;DHT22;39986;50.770;0.266;2023-05-10T08:28:27;16.40;99.90
54082;DHT22;39986;50.770;0.266;2023-05-10T08:30:52;16.20;99.90
54082;DHT22;39986;50.770;0.266;2023-05-10T08:33:18;16.00;99.90
54082;DHT22;39986;50.770;0.266;2023-05-10T08:35:44;16.10;99.90
54082;DHT22;39986;50.770;0.266;2023-05-10T08:38:09;16.00;99.90
54082;DHT22;39986;50.770;0.266;2023-05-10T08:40:36;16.10;99.90
54082;DHT22;39986;50.770;0.266;2023-05-10T08:45:28;16.10;99.90
54082;DHT22;39986;50.770;0.266;2023-05-10T08:47:57;16.00;99.90
54082;DHT22;39986;50.770;0.266;2023-05-10T08:50:23;16.10;99.90
54082;DHT22;39986;50.770;0.266;2023-05-10T08:52:49;16.10;99.90
54082;DHT22;39986;50.770;0.266;2023-05-10T08:55:16;16.20;99.90
54082;DHT22;39986;50.770;0.266;2023-05-10T08:57:42;16.20;99.90
54082;DHT22;39986;50.770;0.266;2023-05-10T09:00:08;16.40;99.90
54082;DHT22;39986;50.770;0.266;2023-05-10T09:02:34;16.60;99.90
54082;DHT22;39986;50.770;0.266;2023-05-10T09:05:00;16.70;99.90
54082;DHT22;39986;50.770;0.266;2023-05-10T09:07:26;16.80;99.90
54082;DHT22;39986;50.770;0.266;2023-05-10T09:09:52;16.90;99.90
54082;DHT22;39986;50.770;0.266;2023-05-10T09:12:18;17.10;99.90
54082;DHT22;39986;50.770;0.266;2023-05-10T09:14:44;17.20;99.90
54082;DHT22;39986;50.770;0.266;2023-05-10T09:17:09;17.20;99.90
54082;DHT22;39986;50.770;0.266;2023-05-10T09:19:35;17.20;99.90
54082;DHT22;39986;50.770;0.266;2023-05-10T09:22:01;17.20;99.90
54082;DHT22;39986;50.770;0.266;2023-05-10T09:24:28;17.20;99.90
54082;DHT22;39986;50.770;0.266;2023-05-10T09:26:54;17.40;99.90
54082;DHT22;39986;50.770;0.266;2023-05-10T09:29:21;17.50;99.90
54082;DHT22;39986;50.770;0.266;2023-05-10T09:31:48;17.60;99.90
54082;DHT22;39986;50.770;0.266;2023-05-10T09:34:19;17.50;99.90
54082;DHT22;39986;50.770;0.266;2023-05-10T09:36:50;17.60;99.90
54082;DHT22;39986;50.770;0.266;2023-05-10T09:39:15;17.70;99.90
54082;DHT22;39986;50.770;0.266;2023-05-10T09:41:41;17.80;99.90
54082;DHT22;39986;50.770;0.266;2023-05-10T09:44:07;17.90;99.90
54082;DHT22;39986;50.770;0.266;2023-05-10T09:46:34;18.00;99.90
54082;DHT22;39986;50.770;0.266;2023-05-10T09:49:00;18.00;99.90
54082;DHT22;39986;50.770;0.266;2023-05-10T09:51:26;18.10;99.90
54082;DHT22;39986;50.770;0.266;2023-05-10T09:54:10;18.20;99.90
54082;DHT22;39986;50.770;0.266;2023-05-10T09:56:36;18.30;99.90
54082;DHT22;39986;50.770;0.266;2023-05-10T09:59:04;18.40;99.90
54082;DHT22;39986;50.770;0.266;2023-05-10T10:01:29;18.40;99.90
54082;DHT22;39986;50.770;0.266;2023-05-10T10:03:56;18.40;99.90
54082;DHT22;39986;50.770;0.266;2023-05-10T10:06:23;18.50;99.90
54082;DHT22;39986;50.770;0.266;2023-05-10T10:08:49;18.60;99.90
54082;DHT22;39986;50.770;0.266;2023-05-10T10:11:14;18.50;99.90
54082;DHT22;39986;50.770;0.266;2023-05-10T10:13:40;18.60;99.90
54082;DHT22;39986;50.770;0.266;2023-05-10T10:16:06;18.60;99.90
54082;DHT22;39986;50.770;0.266;2023-05-10T10:18:33;18.50;99.90
54082;DHT22;39986;50.770;0.266;2023-05-10T10:20:59;18.50;99.90
54082;DHT22;39986;50.770;0.266;2023-05-10T10:23:25;18.40;99.90
54082;DHT22;39986;50.770;0.266;2023-05-10T10:25:50;18.50;99.90
54082;DHT22;39986;50.770;0.266;2023-05-10T10:28:25;18.60;99.90
54082;DHT22;39986;50.770;0.266;2023-05-10T10:30:51;18.80;99.90
54082;DHT22;39986;50.770;0.266;2023-05-10T10:36:05;19.00;99.90
54082;DHT22;39986;50.770;0.266;2023-05-10T10:41:26;18.80;99.90
54082;DHT22;39986;50.770;0.266;2023-05-10T10:46:58;18.70;99.90
54082;DHT22;39986;50.770;0.266;2023-05-10T10:49:22;19.10;99.90
54082;DHT22;39986;50.770;0.266;2023-05-10T10:52:34;19.20;99.90
54082;DHT22;39986;50.770;0.266;2023-05-10T10:54:34;19.50;99.90
54082;DHT22;39986;50.770;0.266;2023-05-10T10:57:10;21.10;99.90
54082;DHT22;39986;50.770;0.266;2023-05-10T10:59:40;22.80;99.90
54082;DHT22;39986;50.770;0.266;2023-05-10T11:02:06;25.00;99.90
54082;DHT22;39986;50.770;0.266;2023-05-10T11:04:40;26.10;99.90
54082;DHT22;39986;50.770;0.266;2023-05-10T11:07:15;27.20;99.90
54082;DHT22;39986;50.770;0.266;2023-05-10T11:09:41;28.30;99.90
54082;DHT22;39986;50.770;0.266;2023-05-10T11:12:10;28.40;99.90
54082;DHT22;39986;50.770;0.266;2023-05-10T11:14:35;29.10;99.90
54082;DHT22;39986;50.770;0.266;2023-05-10T11:17:01;29.10;99.90
54082;DHT22;39986;50.770;0.266;2023-05-10T11:19:27;28.40;99.90
54082;DHT22;39986;50.770;0.266;2023-05-10T11:24:31;28.10;99.90
54082;DHT22;39986;50.770;0.266;2023-05-10T11:26:56;28.80;99.90
54082;DHT22;39986;50.770;0.266;2023-05-10T11:29:22;29.40;99.90
54082;DHT22;39986;50.770;0.266;2023-05-10T11:31:48;29.60;99.90
54082;DHT22;39986;50.770;0.266;2023-05-10T11:34:24;29.00;99.90
54082;DHT22;39986;50.770;0.266;2023-05-10T11:36:53;27.90;99.90
54082;DHT22;39986;50.770;0.266;2023-05-10T11:39:19;25.90;99.90
54082;DHT22;39986;50.770;0.266;2023-05-10T11:41:47;24.10;99.90
54082;DHT22;39986;50.770;0.266;2023-05-10T11:44:12;23.00;99.90
54082;DHT22;39986;50.770;0.266;2023-05-10T11:46:38;22.30;99.90
54082;DHT22;39986;50.770;0.266;2023-05-10T11:49:03;21.70;99.90
54082;DHT22;39986;50.770;0.266;2023-05-10T11:51:34;21.40;99.90
54082;DHT22;39986;50.770;0.266;2023-05-10T11:54:01;21.30;99.90
54082;DHT22;39986;50.770;0.266;2023-05-10T11:56:30;23.30;99.90
54082;DHT22;39986;50.770;0.266;2023-05-10T11:58:57;25.60;99.90
54082;DHT22;39986;50.770;0.266;2023-05-10T12:01:23;27.70;99.90
54082;DHT22;39986;50.770;0.266;2023-05-10T12:03:50;29.20;99.90
54082;DHT22;39986;50.770;0.266;2023-05-10T12:06:15;30.00;99.90
54082;DHT22;39986;50.770;0.266;2023-05-10T12:08:44;30.10;99.90
54082;DHT22;39986;50.770;0.266;2023-05-10T12:11:13;30.20;99.90
54082;DHT22;39986;50.770;0.266;2023-05-10T12:13:43;30.30;99.50
54082;DHT22;39986;50.770;0.266;2023-05-10T12:16:22;30.50;99.20
54082;DHT22;39986;50.770;0.266;2023-05-10T12:18:48;31.60;98.10
54082;DHT22;39986;50.770;0.266;2023-05-10T12:21:14;32.70;96.00
54082;DHT22;39986;50.770;0.266;2023-05-10T12:23:40;33.50;94.50
54082;DHT22;39986;50.770;0.266;2023-05-10T12:26:08;34.00;92.30
54082;DHT22;39986;50.770;0.266;2023-05-10T12:28:34;33.30;92.20
54082;DHT22;39986;50.770;0.266;2023-05-10T12:31:01;32.90;92.70
54082;DHT22;39986;50.770;0.266;2023-05-10T12:33:26;33.10;92.00
54082;DHT22;39986;50.770;0.266;2023-05-10T12:35:53;33.10;91.80
54082;DHT22;39986;50.770;0.266;2023-05-10T12:38:38;32.50;92.60
54082;DHT22;39986;50.770;0.266;2023-05-10T12:41:05;32.10;93.00
54082;DHT22;39986;50.770;0.266;2023-05-10T12:43:31;32.40;92.80
54082;DHT22;39986;50.770;0.266;2023-05-10T12:45:57;32.40;92.20
54082;DHT22;39986;50.770;0.266;2023-05-10T12:48:22;32.10;92.40
54082;DHT22;39986;50.770;0.266;2023-05-10T12:50:48;32.00;92.80
54082;DHT22;39986;50.770;0.266;2023-05-10T12:53:14;31.90;92.10
54082;DHT22;39986;50.770;0.266;2023-05-10T12:55:41;31.60;93.30
54082;DHT22;39986;50.770;0.266;2023-05-10T12:58:06;31.60;93.50
54082;DHT22;39986;50.770;0.266;2023-05-10T13:00:32;32.00;92.80
54082;DHT22;39986;50.770;0.266;2023-05-10T13:02:57;31.10;93.80
54082;DHT22;39986;50.770;0.266;2023-05-10T13:05:23;29.30;95.80
54082;DHT22;39986;50.770;0.266;2023-05-10T13:07:48;29.00;97.60
54082;DHT22;39986;50.770;0.266;2023-05-10T13:10:14;29.90;95.80
54082;DHT22;39986;50.770;0.266;2023-05-10T13:12:40;30.30;95.40
54082;DHT22;39986;50.770;0.266;2023-05-10T13:15:06;30.70;94.30
54082;DHT22;39986;50.770;0.266;2023-05-10T13:17:31;30.40;94.50
54082;DHT22;39986;50.770;0.266;2023-05-10T13:19:57;30.20;94.70
54082;DHT22;39986;50.770;0.266;2023-05-10T13:22:22;30.30;94.60
54082;DHT22;39986;50.770;0.266;2023-05-10T13:24:48;30.70;94.50
54082;DHT22;39986;50.770;0.266;2023-05-10T13:27:13;31.30;94.00
54082;DHT22;39986;50.770;0.266;2023-05-10T13:29:39;32.10;92.30
54082;DHT22;39986;50.770;0.266;2023-05-10T13:32:04;32.30;92.10
54082;DHT22;39986;50.770;0.266;2023-05-10T13:34:30;33.00;91.60
54082;DHT22;39986;50.770;0.266;2023-05-10T13:36:55;33.40;90.80
54082;DHT22;39986;50.770;0.266;2023-05-10T13:39:22;33.80;90.40
54082;DHT22;39986;50.770;0.266;2023-05-10T13:41:47;33.20;89.90
54082;DHT22;39986;50.770;0.266;2023-05-10T13:44:13;31.90;90.90
54082;DHT22;39986;50.770;0.266;2023-05-10T13:46:40;30.70;92.30
54082;DHT22;39986;50.770;0.266;2023-05-10T13:49:05;29.90;93.50
54082;DHT22;39986;50.770;0.266;2023-05-10T13:51:31;29.90;94.60
54082;DHT22;39986;50.770;0.266;2023-05-10T13:53:59;29.80;94.20
54082;DHT22;39986;50.770;0.266;2023-05-10T13:56:25;29.20;95.10
54082;DHT22;39986;50.770;0.266;2023-05-10T13:58:50;28.20;96.10
54082;DHT22;39986;50.770;0.266;2023-05-10T14:01:16;28.00;97.70
54082;DHT22;39986;50.770;0.266;2023-05-10T14:03:42;28.70;97.60
54082;DHT22;39986;50.770;0.266;2023-05-10T14:06:07;30.00;96.80
54082;DHT22;39986;50.770;0.266;2023-05-10T14:08:33;31.60;93.80
54082;DHT22;39986;50.770;0.266;2023-05-10T14:10:59;32.70;92.10
54082;DHT22;39986;50.770;0.266;2023-05-10T14:13:25;34.00;89.90
54082;DHT22;39986;50.770;0.266;2023-05-10T14:15:52;33.80;87.50
54082;DHT22;39986;50.770;0.266;2023-05-10T14:18:17;31.30;90.80
54082;DHT22;39986;50.770;0.266;2023-05-10T14:20:43;28.70;95.10
54082;DHT22;39986;50.770;0.266;2023-05-10T14:23:08;26.60;99.90
54082;DHT22;39986;50.770;0.266;2023-05-10T14:25:34;25.00;99.90
54082;DHT22;39986;50.770;0.266;2023-05-10T14:28:00;23.70;99.90
54082;DHT22;39986;50.770;0.266;2023-05-10T14:30:25;22.90;99.90
54082;DHT22;39986;50.770;0.266;2023-05-10T14:32:51;22.70;99.90
54082;DHT22;39986;50.770;0.266;2023-05-10T14:35:19;22.20;99.90
54082;DHT22;39986;50.770;0.266;2023-05-10T14:37:44;21.90;99.90
54082;DHT22;39986;50.770;0.266;2023-05-10T14:40:10;21.70;99.90
54082;DHT22;39986;50.770;0.266;2023-05-10T14:42:36;21.20;99.90
54082;DHT22;39986;50.770;0.266;2023-05-10T14:45:01;21.00;99.90
54082;DHT22;39986;50.770;0.266;2023-05-10T14:47:27;20.80;99.90
54082;DHT22;39986;50.770;0.266;2023-05-10T14:49:52;20.80;99.90
54082;DHT22;39986;50.770;0.266;2023-05-10T14:52:18;21.10;99.90
54082;DHT22;39986;50.770;0.266;2023-05-10T14:54:43;21.20;99.90
54082;DHT22;39986;50.770;0.266;2023-05-10T14:57:09;20.90;99.90
54082;DHT22;39986;50.770;0.266;2023-05-10T14:59:34;20.90;99.90
54082;DHT22;39986;50.770;0.266;2023-05-10T15:02:00;21.10;99.90
54082;DHT22;39986;50.770;0.266;2023-05-10T15:04:25;21.20;99.90
54082;DHT22;39986;50.770;0.266;2023-05-10T15:06:51;21.10;99.90
54082;DHT22;39986;50.770;0.266;2023-05-10T15:09:17;21.20;99.90
54082;DHT22;39986;50.770;0.266;2023-05-10T15:11:42;21.40;99.90
54082;DHT22;39986;50.770;0.266;2023-05-10T15:14:09;21.30;99.90
54082;DHT22;39986;50.770;0.266;2023-05-10T15:16:35;21.30;99.90
54082;DHT22;39986;50.770;0.266;2023-05-10T15:19:00;21.00;99.90
54082;DHT22;39986;50.770;0.266;2023-05-10T15:21:26;20.60;99.90
54082;DHT22;39986;50.770;0.266;2023-05-10T15:23:52;20.30;99.90
54082;DHT22;39986;50.770;0.266;2023-05-10T15:26:18;20.00;99.90
54082;DHT22;39986;50.770;0.266;2023-05-10T15:28:46;19.60;99.90
54082;DHT22;39986;50.770;0.266;2023-05-10T15:31:11;19.60;99.90
54082;DHT22;39986;50.770;0.266;2023-05-10T15:33:39;19.70;99.90
54082;DHT22;39986;50.770;0.266;2023-05-10T15:36:07;19.80;99.90
54082;DHT22;39986;50.770;0.266;2023-05-10T15:38:32;20.00;99.90
54082;DHT22;39986;50.770;0.266;2023-05-10T15:40:58;20.10;99.90
54082;DHT22;39986;50.770;0.266;2023-05-10T15:43:24;20.00;99.90
54082;DHT22;39986;50.770;0.266;2023-05-10T15:45:49;19.80;99.90
54082;DHT22;39986;50.770;0.266;2023-05-10T15:48:15;19.60;99.90
54082;DHT22;39986;50.770;0.266;2023-05-10T15:50:41;19.20;99.90
54082;DHT22;39986;50.770;0.266;2023-05-10T15:53:07;18.80;99.90
54082;DHT22;39986;50.770;0.266;2023-05-10T15:55:32;18.50;99.90
54082;DHT22;39986;50.770;0.266;2023-05-10T15:57:59;18.30;99.90